createdAt,value
2022-12-04T00:01:20.406Z,90.97
2022-12-04T00:03:48.508Z,90.95
2022-12-04T00:06:17.762Z,90.74
2022-12-04T00:08:46.231Z,90.64
2022-12-04T00:11:15.065Z,90.46
2022-12-04T00:13:42.779Z,90.48
2022-12-04T00:16:18.339Z,90.74
2022-12-04T00:18:46.657Z,90.74
2022-12-04T00:21:15.734Z,91.25
2022-12-04T00:23:43.949Z,91.24
2022-12-04T00:26:13.468Z,91.22
2022-12-04T00:28:41.974Z,91.12
2022-12-04T00:31:14.939Z,90.56
2022-12-04T00:33:42.844Z,90.60
2022-12-04T00:36:12.162Z,90.83
2022-12-04T00:38:40.756Z,91.18
2022-12-04T00:41:10.115Z,91.43
2022-12-04T00:43:37.779Z,91.63
2022-12-04T00:46:06.070Z,91.49
2022-12-04T00:48:33.840Z,91.55
2022-12-04T00:51:05.261Z,91.39
2022-12-04T00:53:33.312Z,91.31
2022-12-04T00:56:08.576Z,91.44
2022-12-04T00:58:36.843Z,91.49
2022-12-04T01:01:07.563Z,91.60
2022-12-04T01:03:36.051Z,91.59
2022-12-04T01:06:04.404Z,91.45
2022-12-04T01:08:32.453Z,91.39
2022-12-04T01:11:00.444Z,91.25
2022-12-04T01:13:28.171Z,90.82
2022-12-04T01:15:55.944Z,90.66
2022-12-04T01:18:23.605Z,90.74
2022-12-04T01:20:52.215Z,90.65
2022-12-04T01:23:19.982Z,90.84
2022-12-04T01:25:54.792Z,90.84
2022-12-04T01:28:22.908Z,90.52
2022-12-04T01:31:00.888Z,90.04
2022-12-04T01:33:29.200Z,89.75
2022-12-04T01:35:57.920Z,89.48
2022-12-04T01:38:26.994Z,90.09
2022-12-04T01:40:54.783Z,90.13
2022-12-04T01:43:22.923Z,90.39
2022-12-04T01:45:55.176Z,90.34
2022-12-04T01:48:26.831Z,89.99
2022-12-04T01:50:58.760Z,90.09
2022-12-04T01:53:26.728Z,90.08
2022-12-04T01:55:55.847Z,90.20
2022-12-04T01:58:27.684Z,91.10
2022-12-04T02:01:00.783Z,91.62
2022-12-04T02:03:32.133Z,91.42
2022-12-04T02:06:00.021Z,91.05
2022-12-04T02:08:28.727Z,90.96
2022-12-04T02:11:11.640Z,91.21
2022-12-04T02:13:47.917Z,91.02
2022-12-04T02:16:15.675Z,90.56
2022-12-04T02:19:03.710Z,90.48
2022-12-04T02:21:37.482Z,90.54
2022-12-04T02:24:23.435Z,90.47
2022-12-04T02:26:51.223Z,90.28
2022-12-04T02:29:37.421Z,90.88
2022-12-04T02:32:20.237Z,90.66
2022-12-04T02:34:53.796Z,90.49
2022-12-04T02:37:27.293Z,90.74
2022-12-04T02:39:59.685Z,90.44
2022-12-04T02:42:47.716Z,90.77
2022-12-04T02:45:20.268Z,90.70
2022-12-04T02:47:48.015Z,90.76
2022-12-04T02:50:18.098Z,90.74
2022-12-04T02:52:52.398Z,90.98
2022-12-04T02:55:23.336Z,90.89
2022-12-04T02:57:53.875Z,91.23
2022-12-04T03:00:22.409Z,91.43
2022-12-04T03:02:53.536Z,91.21
2022-12-04T03:05:34.267Z,90.94
2022-12-04T03:08:06.295Z,91.39
2022-12-04T03:10:38.561Z,91.51
2022-12-04T03:13:16.125Z,91.38
2022-12-04T03:15:47.811Z,91.31
2022-12-04T03:18:30.773Z,91.49
2022-12-04T03:21:03.209Z,91.72
2022-12-04T03:23:37.470Z,91.97
2022-12-04T03:26:13.864Z,91.86
2022-12-04T03:28:47.385Z,92.03
2022-12-04T03:31:17.673Z,92.08
2022-12-04T03:33:47.718Z,92.00
2022-12-04T03:36:22.396Z,91.95
2022-12-04T03:38:50.095Z,92.44
2022-12-04T03:41:25.541Z,92.40
2022-12-04T03:44:13.594Z,92.06
2022-12-04T03:46:46.082Z,92.02
2022-12-04T03:49:14.007Z,92.21
2022-12-04T03:51:45.250Z,92.39
2022-12-04T03:54:12.877Z,92.67
2022-12-04T03:56:43.892Z,92.47
2022-12-04T03:59:15.006Z,92.17
2022-12-04T04:01:45.708Z,92.38
2022-12-04T04:04:16.086Z,92.34
2022-12-04T04:07:05.117Z,92.21
2022-12-04T04:09:35.955Z,91.98
2022-12-04T04:12:20.857Z,91.33
2022-12-04T04:15:09.827Z,91.12
2022-12-04T04:17:59.277Z,90.94
2022-12-04T04:21:11.955Z,90.98
2022-12-04T04:24:01.543Z,91.35
2022-12-04T04:26:32.174Z,91.26
2022-12-04T04:29:00.009Z,90.74
2022-12-04T04:31:41.393Z,90.52
2022-12-04T04:34:20.741Z,90.49
2022-12-04T04:37:14.678Z,90.92
2022-12-04T04:40:14.730Z,91.17
2022-12-04T04:42:48.355Z,91.07
2022-12-04T04:45:20.291Z,91.47
2022-12-04T04:48:06.834Z,91.46
2022-12-04T04:50:35.479Z,91.08
2022-12-04T04:53:09.934Z,91.06
2022-12-04T04:55:38.550Z,90.85
2022-12-04T04:58:13.829Z,90.76
2022-12-04T05:00:45.856Z,90.58
2022-12-04T05:03:13.739Z,90.81
2022-12-04T05:05:41.567Z,90.64
2022-12-04T05:08:09.484Z,90.50
2022-12-04T05:10:37.471Z,90.79
2022-12-04T05:13:05.258Z,90.38
2022-12-04T05:15:32.973Z,90.15
2022-12-04T05:18:00.713Z,89.87
2022-12-04T05:20:28.594Z,89.92
2022-12-04T05:22:56.369Z,90.07
2022-12-04T05:25:24.135Z,90.14
2022-12-04T05:27:51.858Z,90.24
2022-12-04T05:30:19.611Z,90.30
2022-12-04T05:32:47.427Z,90.33
2022-12-04T05:35:15.346Z,90.53
2022-12-04T05:37:43.165Z,90.15
2022-12-04T05:40:11.165Z,90.05
2022-12-04T05:42:39.478Z,90.27
2022-12-04T05:45:07.749Z,90.58
2022-12-04T05:47:42.862Z,90.91
2022-12-04T05:50:12.360Z,90.43
2022-12-04T05:52:40.116Z,90.60
2022-12-04T05:55:08.056Z,91.03
2022-12-04T05:57:35.805Z,90.69
2022-12-04T06:00:04.255Z,90.55
2022-12-04T06:02:33.859Z,90.21
2022-12-04T06:05:01.855Z,90.15
2022-12-04T06:07:29.589Z,90.16
2022-12-04T06:09:57.516Z,90.22
2022-12-04T06:12:25.574Z,90.09
2022-12-04T06:14:53.233Z,90.11
2022-12-04T06:17:21.001Z,89.88
2022-12-04T06:19:48.708Z,89.64
2022-12-04T06:22:16.413Z,89.60
2022-12-04T06:24:44.159Z,89.51
2022-12-04T06:27:28.940Z,89.59
2022-12-04T06:29:56.923Z,89.49
2022-12-04T06:32:24.863Z,89.30
2022-12-04T06:34:53.596Z,88.86
2022-12-04T06:37:22.743Z,88.67
2022-12-04T06:39:50.445Z,88.76
2022-12-04T06:42:18.790Z,88.78
2022-12-04T06:44:46.699Z,89.28
2022-12-04T06:47:14.373Z,89.51
2022-12-04T06:49:42.414Z,89.60
2022-12-04T06:52:10.336Z,89.70
2022-12-04T06:54:38.238Z,89.56
2022-12-04T06:57:05.962Z,89.63
2022-12-04T06:59:34.007Z,89.44
2022-12-04T07:02:01.819Z,89.58
2022-12-04T07:04:29.656Z,89.53
2022-12-04T07:06:57.728Z,89.40
2022-12-04T07:09:25.566Z,89.42
2022-12-04T07:11:55.087Z,89.41
2022-12-04T07:14:22.944Z,89.48
2022-12-04T07:16:50.694Z,89.30
2022-12-04T07:19:18.514Z,89.11
2022-12-04T07:21:46.427Z,88.76
2022-12-04T07:24:15.671Z,88.97
2022-12-04T07:26:43.537Z,89.25
2022-12-04T07:29:11.417Z,89.25
2022-12-04T07:31:39.171Z,89.05
2022-12-04T07:34:07.540Z,88.92
2022-12-04T07:36:35.403Z,89.24
2022-12-04T07:39:03.164Z,89.20
2022-12-04T07:41:30.799Z,88.95
2022-12-04T07:43:58.463Z,88.64
2022-12-04T07:46:27.387Z,88.57
2022-12-04T07:48:56.624Z,88.72
2022-12-04T07:51:25.905Z,88.75
2022-12-04T07:53:54.427Z,88.39
2022-12-04T07:56:22.206Z,88.63
2022-12-04T07:58:50.161Z,88.72
2022-12-04T08:01:20.211Z,88.45
2022-12-04T08:03:49.230Z,88.07
2022-12-04T08:06:21.313Z,87.77
2022-12-04T08:08:49.719Z,87.83
2022-12-04T08:11:18.748Z,87.68
2022-12-04T08:13:46.485Z,87.71
2022-12-04T08:16:14.694Z,87.86
2022-12-04T08:18:46.733Z,88.06
2022-12-04T08:21:16.686Z,88.15
2022-12-04T08:23:44.458Z,88.13
2022-12-04T08:26:12.776Z,88.07
2022-12-04T08:28:41.180Z,87.86
2022-12-04T08:31:13.425Z,87.48
2022-12-04T08:33:41.823Z,87.51
2022-12-04T08:36:10.759Z,87.73
2022-12-04T08:38:38.829Z,87.73
2022-12-04T08:41:07.933Z,87.81
2022-12-04T08:43:35.643Z,87.46
2022-12-04T08:46:04.956Z,87.60
2022-12-04T08:48:33.187Z,87.50
2022-12-04T08:51:01.668Z,87.51
2022-12-04T08:53:30.443Z,87.35
2022-12-04T08:56:00.551Z,86.97
2022-12-04T08:58:28.469Z,86.58
2022-12-04T09:00:56.347Z,85.70
2022-12-04T09:03:29.319Z,85.73
2022-12-04T09:06:00.037Z,85.86
2022-12-04T09:08:27.907Z,85.66
2022-12-04T09:10:55.688Z,85.26
2022-12-04T09:13:23.378Z,85.39
2022-12-04T09:15:51.203Z,85.56
2022-12-04T09:18:19.083Z,85.28
2022-12-04T09:20:55.001Z,85.09
2022-12-04T09:23:23.022Z,85.22
2022-12-04T09:25:50.907Z,85.04
2022-12-04T09:28:18.709Z,85.08
2022-12-04T09:30:55.585Z,85.18
2022-12-04T09:33:23.331Z,85.34
2022-12-04T09:35:51.239Z,85.15
2022-12-04T09:38:19.317Z,85.35
2022-12-04T09:41:13.368Z,85.50
2022-12-04T09:43:48.220Z,85.20
2022-12-04T09:46:19.387Z,85.19
2022-12-04T09:48:48.790Z,85.16
2022-12-04T09:51:19.466Z,84.99
2022-12-04T09:53:47.168Z,85.10
2022-12-04T09:56:19.796Z,85.04
2022-12-04T09:58:50.862Z,85.10
2022-12-04T10:01:31.055Z,84.97
2022-12-04T10:04:05.675Z,84.84
2022-12-04T10:06:40.893Z,85.04
2022-12-04T10:09:08.606Z,84.68
2022-12-04T10:11:42.577Z,84.59
2022-12-04T10:14:10.309Z,84.63
2022-12-04T10:16:52.251Z,84.73
2022-12-04T10:19:29.312Z,84.84
2022-12-04T10:22:09.153Z,85.22
2022-12-04T10:24:49.549Z,85.50
2022-12-04T10:27:21.261Z,85.45
2022-12-04T10:29:50.607Z,85.06
2022-12-04T10:32:27.038Z,85.03
2022-12-04T10:34:57.173Z,84.98
2022-12-04T10:37:25.662Z,85.31
2022-12-04T10:39:56.769Z,85.39
2022-12-04T10:42:35.195Z,84.91
2022-12-04T10:45:04.098Z,84.95
2022-12-04T10:47:32.647Z,85.13
2022-12-04T10:50:05.573Z,85.11
2022-12-04T10:52:33.280Z,84.55
2022-12-04T10:55:02.250Z,84.21
2022-12-04T10:57:37.384Z,84.19
2022-12-04T11:00:23.743Z,83.68
2022-12-04T11:02:52.244Z,83.40
2022-12-04T11:05:24.990Z,83.07
2022-12-04T11:07:54.792Z,82.52
2022-12-04T11:10:25.589Z,82.61
2022-12-04T11:12:57.475Z,82.78
2022-12-04T11:15:25.699Z,82.87
2022-12-04T11:17:53.460Z,82.80
2022-12-04T11:20:26.400Z,82.88
2022-12-04T11:22:56.960Z,82.82
2022-12-04T11:25:30.688Z,82.44
2022-12-04T11:28:00.131Z,82.07
2022-12-04T11:30:35.861Z,81.44
2022-12-04T11:33:04.667Z,81.46
2022-12-04T11:35:32.729Z,81.34
2022-12-04T11:38:14.686Z,81.09
2022-12-04T11:40:50.246Z,80.95
2022-12-04T11:43:18.734Z,80.89
2022-12-04T11:45:55.841Z,80.77
2022-12-04T11:48:23.750Z,80.70
2022-12-04T11:50:51.715Z,80.95
2022-12-04T11:53:40.400Z,80.84
2022-12-04T11:56:08.400Z,80.68
2022-12-04T11:58:36.067Z,80.70
2022-12-04T12:01:03.934Z,80.60
2022-12-04T12:03:42.606Z,80.52
2022-12-04T12:06:24.729Z,80.81
2022-12-04T12:09:11.495Z,80.85
2022-12-04T12:11:42.616Z,80.94
2022-12-04T12:14:28.500Z,80.97
2022-12-04T12:17:08.319Z,81.24
2022-12-04T12:19:49.755Z,80.65
2022-12-04T12:22:17.454Z,80.63
2022-12-04T12:24:55.663Z,80.81
2022-12-04T12:27:23.592Z,81.09
2022-12-04T12:30:10.091Z,80.79
2022-12-04T12:32:43.926Z,80.56
2022-12-04T12:35:33.623Z,80.48
2022-12-04T12:38:02.779Z,80.62
2022-12-04T12:40:51.795Z,80.44
2022-12-04T12:43:22.757Z,80.45
2022-12-04T12:45:53.521Z,80.67
2022-12-04T12:48:44.505Z,80.61
2022-12-04T12:51:30.062Z,80.42
2022-12-04T12:54:04.918Z,80.23
2022-12-04T12:56:38.388Z,80.20
2022-12-04T12:59:10.706Z,80.41
2022-12-04T13:01:41.854Z,80.53
2022-12-04T13:04:28.514Z,80.60
2022-12-04T13:07:17.474Z,80.60
2022-12-04T13:09:48.343Z,80.42
2022-12-04T13:12:18.384Z,80.42
2022-12-04T13:14:49.190Z,80.41
2022-12-04T13:17:46.873Z,80.39
2022-12-04T13:20:18.826Z,80.33
2022-12-04T13:23:06.619Z,80.47
2022-12-04T13:25:37.133Z,80.61
2022-12-04T13:28:23.443Z,80.40
2022-12-04T13:30:51.209Z,80.41
2022-12-04T13:33:37.654Z,80.46
2022-12-04T13:36:14.446Z,80.80
2022-12-04T13:38:45.044Z,80.98
2022-12-04T13:41:17.333Z,81.13
2022-12-04T13:43:47.074Z,81.09
2022-12-04T13:46:24.371Z,81.25
2022-12-04T13:48:52.271Z,81.20
2022-12-04T13:51:20.035Z,81.18
2022-12-04T13:53:48.441Z,81.15
2022-12-04T13:56:27.510Z,81.24
2022-12-04T13:59:03.092Z,81.22
2022-12-04T14:01:37.845Z,81.17
2022-12-04T14:04:06.556Z,81.33
2022-12-04T14:06:37.753Z,81.20
2022-12-04T14:09:08.691Z,81.06
2022-12-04T14:11:45.551Z,81.02
2022-12-04T14:14:28.243Z,80.97
2022-12-04T14:17:00.062Z,81.04
2022-12-04T14:19:30.882Z,81.16
2022-12-04T14:21:58.937Z,81.33
2022-12-04T14:24:32.665Z,81.48
2022-12-04T14:27:11.727Z,81.71
2022-12-04T14:29:46.010Z,81.72
2022-12-04T14:32:15.671Z,81.83
2022-12-04T14:34:48.417Z,81.78
2022-12-04T14:37:27.855Z,81.92
2022-12-04T14:39:56.738Z,81.96
2022-12-04T14:42:29.684Z,81.78
2022-12-04T14:44:59.160Z,81.77
2022-12-04T14:47:36.397Z,81.91
2022-12-04T14:50:22.288Z,81.93
2022-12-04T14:52:49.941Z,81.93
2022-12-04T14:55:32.879Z,82.03
2022-12-04T14:58:21.667Z,82.06
2022-12-04T15:00:52.395Z,81.93
2022-12-04T15:03:21.449Z,82.18
2022-12-04T15:05:52.458Z,82.16
2022-12-04T15:08:21.020Z,82.32
2022-12-04T15:11:09.272Z,82.55
2022-12-04T15:13:39.550Z,82.39
2022-12-04T15:16:17.447Z,82.35
2022-12-04T15:18:58.861Z,82.61
2022-12-04T15:21:38.071Z,82.80
2022-12-04T15:24:10.008Z,82.85
2022-12-04T15:26:38.975Z,82.93
2022-12-04T15:29:08.481Z,83.08
2022-12-04T15:31:47.184Z,82.85
2022-12-04T15:34:16.586Z,82.65
2022-12-04T15:36:46.208Z,82.82
2022-12-04T15:39:17.414Z,82.70
2022-12-04T15:41:45.169Z,82.90
2022-12-04T15:44:25.312Z,83.06
2022-12-04T15:46:54.761Z,83.04
2022-12-04T15:49:27.729Z,83.03
2022-12-04T15:52:10.700Z,82.97
2022-12-04T15:54:41.861Z,82.86
2022-12-04T15:57:20.620Z,82.74
2022-12-04T15:59:49.699Z,82.77
2022-12-04T16:02:25.623Z,83.03
2022-12-04T16:04:53.563Z,83.15
2022-12-04T16:07:28.877Z,83.43
2022-12-04T16:10:03.225Z,83.31
2022-12-04T16:12:32.115Z,83.66
2022-12-04T16:14:59.904Z,83.65
2022-12-04T16:17:30.171Z,83.48
2022-12-04T16:19:58.694Z,83.98
2022-12-04T16:22:28.709Z,84.47
2022-12-04T16:24:57.825Z,84.43
2022-12-04T16:27:26.067Z,84.29
2022-12-04T16:29:53.991Z,84.07
2022-12-04T16:32:24.900Z,84.21
2022-12-04T16:34:52.694Z,83.94
2022-12-04T16:37:21.108Z,84.06
2022-12-04T16:39:49.133Z,84.22
2022-12-04T16:42:18.611Z,84.34
2022-12-04T16:44:46.763Z,84.15
2022-12-04T16:47:15.278Z,84.38
2022-12-04T16:49:43.829Z,84.31
2022-12-04T16:52:12.109Z,84.35
2022-12-04T16:54:39.904Z,84.35
2022-12-04T16:57:08.947Z,84.24
2022-12-04T16:59:36.828Z,84.14
2022-12-04T17:02:06.899Z,83.98
2022-12-04T17:04:34.806Z,83.92
2022-12-04T17:07:03.138Z,83.65
2022-12-04T17:09:30.847Z,83.70
2022-12-04T17:11:58.790Z,83.73
2022-12-04T17:14:27.826Z,83.43
2022-12-04T17:16:56.499Z,83.14
2022-12-04T17:19:24.384Z,83.32
2022-12-04T17:21:52.170Z,83.34
2022-12-04T17:24:19.897Z,83.24
2022-12-04T17:26:47.598Z,82.94
2022-12-04T17:29:15.408Z,83.04
2022-12-04T17:31:43.189Z,83.28
2022-12-04T17:34:10.917Z,83.50
2022-12-04T17:36:38.764Z,83.56
2022-12-04T17:39:08.234Z,83.65
2022-12-04T17:41:37.188Z,83.89
2022-12-04T17:44:04.926Z,84.03
2022-12-04T17:46:32.700Z,84.13
2022-12-04T17:49:05.287Z,84.20
2022-12-04T17:51:36.127Z,84.26
2022-12-04T17:54:04.709Z,84.19
2022-12-04T17:56:34.881Z,84.30
2022-12-04T17:59:02.689Z,84.16
2022-12-04T18:01:31.265Z,83.99
2022-12-04T18:04:03.407Z,83.89
2022-12-04T18:06:32.895Z,83.75
2022-12-04T18:09:08.740Z,83.82
2022-12-04T18:11:37.374Z,83.68
2022-12-04T18:14:11.672Z,83.62
2022-12-04T18:16:48.216Z,83.54
2022-12-04T18:19:15.987Z,83.62
2022-12-04T18:21:43.663Z,83.75
2022-12-04T18:24:11.392Z,83.77
2022-12-04T18:26:40.551Z,83.77
2022-12-04T18:29:09.541Z,83.85
2022-12-04T18:31:40.846Z,84.00
2022-12-04T18:34:08.967Z,84.22
2022-12-04T18:36:38.839Z,84.23
2022-12-04T18:39:13.573Z,84.33
2022-12-04T18:41:41.941Z,84.24
2022-12-04T18:44:10.537Z,84.23
2022-12-04T18:46:38.780Z,84.10
2022-12-04T18:49:09.127Z,84.07
2022-12-04T18:51:39.607Z,84.22
2022-12-04T18:54:09.799Z,84.02
2022-12-04T18:56:37.563Z,84.23
2022-12-04T18:59:07.075Z,84.33
2022-12-04T19:01:37.357Z,84.75
2022-12-04T19:04:05.986Z,84.84
2022-12-04T19:06:35.650Z,84.71
2022-12-04T19:09:05.232Z,84.85
2022-12-04T19:11:33.144Z,84.78
2022-12-04T19:14:03.477Z,85.10
2022-12-04T19:16:33.228Z,85.05
2022-12-04T19:19:01.317Z,85.09
2022-12-04T19:21:29.113Z,85.25
2022-12-04T19:23:59.723Z,85.43
2022-12-04T19:26:28.410Z,85.31
2022-12-04T19:28:56.952Z,85.33
2022-12-04T19:31:27.535Z,85.48
2022-12-04T19:33:57.724Z,84.91
2022-12-04T19:36:27.203Z,84.87
2022-12-04T19:38:56.681Z,84.68
2022-12-04T19:41:26.065Z,85.02
2022-12-04T19:43:58.616Z,84.76
2022-12-04T19:46:28.128Z,84.46
2022-12-04T19:48:58.484Z,84.46
2022-12-04T19:51:27.402Z,84.41
2022-12-04T19:53:55.519Z,84.63
2022-12-04T19:56:24.755Z,84.52
2022-12-04T19:58:53.322Z,84.73
2022-12-04T20:01:24.887Z,84.58
2022-12-04T20:03:53.322Z,84.69
2022-12-04T20:06:22.640Z,84.64
2022-12-04T20:08:57.965Z,84.73
2022-12-04T20:11:26.496Z,84.94
2022-12-04T20:13:55.761Z,84.95
2022-12-04T20:16:24.982Z,85.08
2022-12-04T20:18:53.289Z,85.21
2022-12-04T20:21:23.208Z,85.34
2022-12-04T20:23:51.348Z,85.42
2022-12-04T20:26:20.530Z,85.38
2022-12-04T20:28:48.349Z,85.29
2022-12-04T20:31:16.143Z,85.27
2022-12-04T20:33:44.969Z,85.50
2022-12-04T20:36:13.412Z,85.47
2022-12-04T20:38:41.706Z,85.47
2022-12-04T20:41:10.625Z,85.53
2022-12-04T20:43:38.346Z,85.45
2022-12-04T20:46:23.292Z,85.56
2022-12-04T20:48:53.295Z,85.86
2022-12-04T20:51:25.649Z,85.42
2022-12-04T20:53:55.408Z,85.57
2022-12-04T20:56:23.427Z,85.82
2022-12-04T20:58:53.535Z,85.73
2022-12-04T21:01:21.705Z,85.90
2022-12-04T21:03:49.588Z,85.78
2022-12-04T21:06:20.059Z,85.89
2022-12-04T21:08:54.846Z,85.94
2022-12-04T21:11:28.598Z,85.89
2022-12-04T21:14:16.006Z,86.01
2022-12-04T21:16:47.533Z,86.06
2022-12-04T21:19:17.027Z,86.00
2022-12-04T21:21:45.016Z,86.19
2022-12-04T21:24:14.230Z,86.13
2022-12-04T21:26:42.615Z,86.30
2022-12-04T21:29:10.857Z,86.35
2022-12-04T21:31:39.230Z,86.19
2022-12-04T21:34:07.944Z,86.21
2022-12-04T21:36:35.788Z,86.37
2022-12-04T21:39:04.458Z,86.58
2022-12-04T21:41:50.641Z,86.69
2022-12-04T21:44:19.960Z,86.45
2022-12-04T21:46:48.611Z,86.45
2022-12-04T21:49:17.404Z,86.40
2022-12-04T21:52:00.533Z,86.71
2022-12-04T21:54:28.949Z,86.75
2022-12-04T21:56:57.117Z,86.72
2022-12-04T21:59:25.416Z,86.47
2022-12-04T22:01:53.696Z,86.31
2022-12-04T22:04:21.930Z,86.51
2022-12-04T22:06:49.783Z,86.78
2022-12-04T22:09:17.739Z,87.02
2022-12-04T22:11:45.705Z,86.90
2022-12-04T22:14:14.151Z,86.47
2022-12-04T22:16:43.238Z,86.11
2022-12-04T22:19:12.468Z,85.60
2022-12-04T22:21:40.321Z,85.44
2022-12-04T22:24:08.535Z,85.48
2022-12-04T22:26:36.383Z,85.54
2022-12-04T22:29:20.775Z,85.34
2022-12-04T22:31:52.578Z,85.49
2022-12-04T22:34:20.423Z,85.68
2022-12-04T22:36:48.915Z,86.04
2022-12-04T22:39:16.712Z,85.98
2022-12-04T22:41:44.517Z,86.07
2022-12-04T22:44:12.255Z,86.22
2022-12-04T22:46:40.112Z,86.42
2022-12-04T22:49:07.927Z,86.34
2022-12-04T22:51:35.719Z,86.22
2022-12-04T22:54:05.421Z,86.15
2022-12-04T22:56:35.443Z,85.66
2022-12-04T22:59:03.208Z,85.60
2022-12-04T23:01:32.264Z,85.84
2022-12-04T23:04:02.293Z,85.75
2022-12-04T23:06:31.962Z,85.35
2022-12-04T23:09:04.676Z,85.24
2022-12-04T23:11:32.498Z,85.30
2022-12-04T23:14:01.632Z,85.56
2022-12-04T23:16:30.674Z,85.70
2022-12-04T23:18:59.129Z,85.61
2022-12-04T23:21:29.046Z,85.99
2022-12-04T23:23:57.524Z,85.90
2022-12-04T23:26:29.508Z,86.31
2022-12-04T23:28:57.776Z,86.40
2022-12-04T23:31:25.816Z,86.83
2022-12-04T23:33:53.540Z,86.59
2022-12-04T23:36:21.579Z,86.41
2022-12-04T23:38:49.331Z,86.46
2022-12-04T23:41:19.661Z,86.57
2022-12-04T23:43:48.076Z,86.45
2022-12-04T23:46:17.691Z,86.24
2022-12-04T23:48:45.736Z,86.41
2022-12-04T23:51:15.016Z,86.35
2022-12-04T23:53:43.354Z,86.52
2022-12-04T23:56:12.847Z,86.82
2022-12-04T23:58:41.422Z,87.16
